Time;durP1;ratioP1;P1;durP2;ratioP2;P2;SDS_P1;SDS_P2;PMS_P1;PMS_P2;Temp;Humidity;BMP_temperature;BMP_pressure;BME280_temperature;BME280_humidity;BME280_pressure;Samples;Min_cycle;Max_cycle;Signal;HPM_P1;HPM_P2
2021/09/30 00:01:03;;;;;;;6.15;1.40;;;9.50;99.90;;;9.06;95.37;102601.31;4201480;28;20029;-75
2021/09/30 00:03:04;;;;;;;3.42;1.63;;;9.50;99.90;;;9.00;95.92;102592.97;4202829;28;20119;-75
2021/09/30 00:05:07;;;;;;;2.70;1.25;;;9.40;99.90;;;9.12;95.69;102597.44;4203896;28;20232;-76
2021/09/30 00:07:08;;;;;;;5.38;2.05;;;9.40;99.90;;;9.19;95.28;102601.38;4202685;28;20024;-75
2021/09/30 00:09:10;;;;;;;4.93;1.35;;;9.40;99.90;;;9.17;95.16;102601.44;4203692;28;20036;-75
2021/09/30 00:11:13;;;;;;;3.20;1.02;;;9.40;99.90;;;9.09;95.08;102595.00;4202641;28;20566;-74
2021/09/30 00:13:35;;;;;;;2.65;1.10;;;9.40;99.90;;;9.12;94.63;102586.91;4203821;28;20111;-75
2021/09/30 00:45:47;;;;;;;6.03;2.38;;;9.20;99.90;;;8.85;93.52;102569.38;4203279;28;20055;-75
2021/09/30 00:52:12;;;;;;;4.70;1.52;;;9.10;99.90;;;8.62;94.04;102567.38;4203396;28;20130;-75
2021/09/30 02:21:09;;;;;;;3.17;1.45;;;8.50;99.90;;;8.30;92.89;102514.19;4201100;28;20066;-75
2021/09/30 02:23:06;;;;;;;4.03;1.42;;;8.40;99.90;;;8.27;92.73;102514.41;4192294;28;20078;-76
2021/09/30 02:28:15;;;;;;;2.55;1.20;;;8.50;99.90;;;8.39;90.99;102512.81;4174144;28;20048;-75
2021/09/30 02:58:32;;;;;;;2.17;1.65;;;8.00;99.90;;;7.66;94.60;102503.41;4200751;28;20093;-75
2021/09/30 03:00:34;;;;;;;1.88;1.60;;;8.00;99.90;;;7.60;94.55;102507.25;4183536;28;20028;-75
2021/09/30 03:02:38;;;;;;;5.13;1.75;;;8.00;99.90;;;7.60;95.18;102506.41;4206711;28;20530;-75
2021/09/30 03:04:41;;;;;;;3.72;1.20;;;8.00;99.90;;;7.61;94.91;102493.19;4200305;28;20024;-76
2021/09/30 03:06:43;;;;;;;3.70;1.45;;;8.00;99.90;;;7.65;95.27;102502.53;4200253;28;20383;-74
2021/09/30 03:08:47;;;;;;;2.47;1.60;;;8.10;99.90;;;7.70;95.18;102491.78;4200062;28;20503;-75
2021/09/30 03:10:50;;;;;;;4.97;1.67;;;8.00;99.90;;;7.78;95.04;102479.84;4200361;28;20115;-76
2021/09/30 03:12:54;;;;;;;7.18;1.33;;;8.00;99.90;;;7.91;93.65;102486.97;4200254;28;20221;-75
2021/09/30 03:17:17;;;;;;;4.55;1.52;;;8.20;99.90;;;7.80;93.57;102485.00;4200415;28;20055;-75
2021/09/30 03:23:50;;;;;;;3.17;1.60;;;8.10;99.90;;;7.87;93.31;102488.94;4200411;28;20082;-75
2021/09/30 03:25:52;;;;;;;3.00;1.15;;;8.00;99.90;;;7.94;92.21;102486.78;4200163;28;20056;-76
2021/09/30 03:27:55;;;;;;;2.17;1.58;;;8.10;99.90;;;7.95;91.73;102486.66;4199943;28;20028;-75
2021/09/30 03:29:56;;;;;;;4.80;1.90;;;8.10;99.90;;;7.93;91.10;102482.44;4183443;28;20029;-76
2021/09/30 03:32:01;;;;;;;2.15;1.38;;;8.20;99.90;;;7.96;90.53;102490.13;4191521;28;20035;-75
2021/09/30 03:34:04;;;;;;;2.10;1.50;;;8.10;99.90;;;7.95;90.16;102496.31;4200179;28;20439;-75
2021/09/30 03:36:05;;;;;;;3.83;1.10;;;8.10;99.90;;;7.94;89.33;102494.66;4201637;28;20032;-76
2021/09/30 03:38:08;;;;;;;2.88;2.42;;;8.10;99.90;;;7.84;90.01;102497.00;4204343;28;20040;-75
2021/09/30 03:40:09;;;;;;;3.15;1.50;;;8.10;99.90;;;7.79;89.89;102494.66;4203188;28;20040;-75
2021/09/30 03:42:10;;;;;;;4.95;1.45;;;8.10;99.90;;;7.82;89.56;102498.91;4203082;28;20084;-75
2021/09/30 03:44:11;;;;;;;2.35;1.33;;;8.10;99.90;;;7.78;89.58;102505.25;4204138;28;20044;-76
2021/09/30 03:46:12;;;;;;;1.50;1.30;;;8.00;99.90;;;7.64;90.18;102506.13;4203218;28;20031;-76
2021/09/30 03:48:14;;;;;;;3.05;1.40;;;8.00;99.90;;;7.44;91.58;102513.50;4202921;28;20033;-75
2021/09/30 03:50:26;;;;;;;2.80;1.30;;;7.90;99.90;;;7.25;92.39;102505.91;4202894;28;20040;-75
2021/09/30 03:53:14;;;;;;;3.85;1.60;;;7.80;99.90;;;7.14;92.66;102497.81;4202943;28;20024;-75
2021/09/30 03:59:20;;;;;;;5.57;1.38;;;7.60;99.90;;;7.28;94.21;102500.47;4203997;28;20059;-75
2021/09/30 04:01:21;;;;;;;2.42;1.30;;;7.70;99.90;;;7.25;93.67;102495.41;4203058;28;20036;-75
2021/09/30 04:03:22;;;;;;;3.17;1.90;;;7.70;99.90;;;7.21;94.30;102501.78;4202812;28;20114;-75
2021/09/30 04:05:23;;;;;;;2.30;1.60;;;7.60;99.90;;;7.19;95.34;102501.88;4186012;28;20527;-75
2021/09/30 04:07:23;;;;;;;4.03;2.53;;;7.60;99.90;;;7.19;94.83;102501.88;4202833;28;20430;-75
2021/09/30 04:09:28;;;;;;;2.58;1.70;;;7.60;99.90;;;7.19;95.46;102501.88;4202561;28;20066;-75
2021/09/30 04:11:29;;;;;;;4.10;1.92;;;7.60;99.90;;;7.29;94.56;102501.31;4203954;28;20153;-75
2021/09/30 04:13:30;;;;;;;5.03;1.50;;;7.60;99.90;;;7.37;93.82;102499.06;4202563;28;20035;-75
2021/09/30 04:15:31;;;;;;;2.47;1.40;;;7.60;99.90;;;7.47;93.26;102492.31;4202721;28;20047;-75
2021/09/30 04:17:32;;;;;;;3.88;2.20;;;7.70;99.90;;;7.54;92.25;102499.75;4203811;28;20042;-75
2021/09/30 04:19:33;;;;;;;2.22;1.30;;;7.70;99.90;;;7.58;92.14;102496.00;4202572;28;20032;-75
2021/09/30 04:21:34;;;;;;;4.10;1.48;;;7.80;99.90;;;7.40;91.75;102483.13;4203595;28;20029;-75
2021/09/30 04:23:35;;;;;;;4.80;1.90;;;7.70;99.90;;;7.46;91.70;102488.88;4202301;28;20024;-75
2021/09/30 04:25:37;;;;;;;3.90;1.80;;;7.70;99.90;;;7.58;90.67;102487.28;4202450;28;20028;-75
2021/09/30 04:27:38;;;;;;;2.35;1.40;;;7.70;99.90;;;7.55;90.40;102484.84;4202378;28;20095;-75
2021/09/30 04:29:39;;;;;;;2.58;1.80;;;7.70;99.90;;;7.49;91.23;102488.69;4202389;28;20016;-75
2021/09/30 04:31:40;;;;;;;2.63;1.50;;;7.70;99.90;;;7.32;91.34;102480.97;4203649;28;20499;-75
2021/09/30 04:33:41;;;;;;;4.05;1.45;;;7.70;99.90;;;7.28;91.91;102479.47;4202355;28;20027;-75
2021/09/30 04:35:42;;;;;;;3.25;1.63;;;7.60;99.90;;;7.42;90.83;102478.63;4203458;28;20064;-75
2021/09/30 04:37:43;;;;;;;3.70;1.35;;;7.60;99.90;;;7.40;90.97;102468.25;4185630;28;20508;-75
2021/09/30 04:39:44;;;;;;;4.47;1.35;;;7.70;99.90;;;7.37;90.74;102473.69;4202122;28;20043;-75
2021/09/30 04:41:47;;;;;;;2.78;1.40;;;7.70;99.90;;;7.34;91.27;102468.63;4185574;28;20392;-75
2021/09/30 04:43:48;;;;;;;4.40;1.60;;;7.60;99.90;;;7.43;91.65;102472.44;4202178;28;20036;-75
2021/09/30 04:45:49;;;;;;;3.08;1.65;;;7.60;99.90;;;7.31;92.45;102481.91;4201836;28;20115;-75
2021/09/30 04:47:49;;;;;;;3.22;1.67;;;7.60;99.90;;;7.25;92.95;102477.03;4202989;28;20171;-75
2021/09/30 04:49:50;;;;;;;2.55;2.05;;;7.60;99.90;;;7.15;93.71;102483.75;4201730;28;20592;-75
2021/09/30 04:51:51;;;;;;;1.95;1.58;;;7.60;99.90;;;7.06;94.56;102469.41;4202075;28;20020;-76
2021/09/30 04:53:52;;;;;;;3.03;1.67;;;7.50;99.90;;;7.02;94.92;102483.63;4201638;28;20028;-75
2021/09/30 04:55:53;;;;;;;2.20;1.58;;;7.50;99.90;;;7.12;95.19;102481.31;4203316;28;20045;-75
2021/09/30 04:57:54;;;;;;;2.90;1.30;;;7.60;99.90;;;7.19;94.75;102485.28;4203214;28;20032;-75
2021/09/30 04:59:55;;;;;;;3.28;1.48;;;7.50;99.90;;;7.20;93.50;102486.94;4203111;28;20024;-75
2021/09/30 05:01:56;;;;;;;2.65;1.40;;;7.50;99.90;;;7.28;92.65;102489.13;4201687;28;20060;-75
2021/09/30 05:03:56;;;;;;;4.68;1.60;;;7.50;99.90;;;7.23;92.33;102484.13;4203091;28;20047;-76
2021/09/30 05:05:58;;;;;;;3.33;2.00;;;7.50;99.90;;;7.08;92.63;102480.66;4201901;28;20107;-76
2021/09/30 05:07:58;;;;;;;2.83;1.70;;;7.50;99.90;;;7.29;92.45;102483.78;4202768;28;20495;-76
2021/09/30 05:10:03;;;;;;;3.58;1.67;;;7.50;99.90;;;7.29;91.85;102482.97;4201673;28;20028;-76
2021/09/30 05:12:06;;;;;;;;;;;7.50;99.90;;;7.21;91.38;102479.00;4202206;28;20025;-75
2021/09/30 05:14:07;;;;;;;4.40;1.88;;;7.50;99.90;;;7.16;91.84;102472.34;4202913;28;19908;-76
2021/09/30 05:16:11;;;;;;;4.35;2.40;;;7.50;99.90;;;7.15;92.94;102479.38;4201476;28;20033;-75
2021/09/30 05:18:13;;;;;;;2.65;1.85;;;7.50;99.90;;;7.15;93.43;102475.88;4202578;28;20029;-76
2021/09/30 05:20:14;;;;;;;2.90;1.60;;;7.50;99.90;;;7.27;92.97;102471.69;4201521;28;20107;-75
2021/09/30 05:22:14;;;;;;;2.15;1.48;;;7.50;99.90;;;7.30;92.20;102461.84;4202697;28;20388;-75
2021/09/30 05:24:15;;;;;;;1.67;1.48;;;7.50;99.90;;;7.21;92.88;102472.91;4201026;28;20028;-75
2021/09/30 05:26:17;;;;;;;2.63;1.50;;;7.50;99.90;;;7.21;92.08;102465.88;4202111;28;20487;-75
2021/09/30 05:28:18;;;;;;;2.55;1.70;;;7.50;99.90;;;7.19;93.08;102465.13;4201381;28;20408;-75
2021/09/30 05:30:21;;;;;;;3.17;1.83;;;7.50;99.90;;;7.22;93.45;102464.94;4201330;28;20103;-75
2021/09/30 05:32:21;;;;;;;2.38;1.65;;;7.50;99.90;;;7.17;93.17;102453.88;4201221;28;20036;-75
2021/09/30 05:34:22;;;;;;;3.97;1.60;;;7.50;99.90;;;7.17;92.96;102451.25;4184584;28;20029;-75
2021/09/30 05:36:24;;;;;;;3.22;2.28;;;7.50;99.90;;;7.21;93.06;102451.91;4189574;28;20032;-75
2021/09/30 05:38:26;;;;;;;2.88;1.80;;;7.50;99.90;;;7.23;92.38;102450.03;4201044;28;20020;-75
2021/09/30 05:40:31;;;;;;;5.03;1.60;;;7.50;99.90;;;7.24;91.75;102447.31;4201275;28;20037;-75
2021/09/30 05:42:32;;;;;;;3.05;1.52;;;7.50;99.90;;;7.30;91.75;102451.34;4202646;28;20031;-76
2021/09/30 05:44:33;;;;;;;2.80;1.60;;;7.50;99.90;;;7.36;89.98;102442.25;4201101;28;20032;-76
2021/09/30 05:46:47;;;;;;;2.83;1.30;;;7.50;99.90;;;7.23;90.10;102452.66;4184426;28;20029;-74
2021/09/30 05:48:48;;;;;;;3.92;1.75;;;7.50;99.90;;;7.18;90.59;102458.19;4200942;28;20021;-75
2021/09/30 05:50:50;;;;;;;4.50;1.60;;;7.40;99.90;;;7.07;90.89;102462.38;4201428;28;20037;-75
2021/09/30 05:52:50;;;;;;;2.67;1.67;;;7.40;99.90;;;7.13;90.71;102464.66;4201936;28;20039;-75
2021/09/30 05:54:51;;;;;;;8.05;1.92;;;7.40;99.90;;;7.07;91.04;102454.53;4200947;28;20040;-75
2021/09/30 05:56:52;;;;;;;4.18;1.60;;;7.40;99.90;;;6.98;90.99;102441.94;4202043;28;20032;-76
2021/09/30 05:58:53;;;;;;;2.85;1.67;;;7.40;99.90;;;7.02;90.83;102446.06;4201109;28;20027;-75
2021/09/30 06:14:18;;;;;;;3.65;1.63;;;7.30;99.90;;;6.94;91.20;102445.69;4200845;28;20024;-75
2021/09/30 06:16:23;;;;;;;3.58;2.58;;;7.30;99.90;;;7.00;90.41;102445.31;4200459;28;20021;-75
2021/09/30 06:18:24;;;;;;;3.00;1.73;;;7.30;99.90;;;6.94;90.75;102448.31;4201641;28;20101;-75
2021/09/30 06:20:25;;;;;;;4.15;1.63;;;7.30;99.90;;;6.94;91.20;102453.56;4200414;28;20024;-76
2021/09/30 06:22:26;;;;;;;4.00;1.52;;;7.30;99.90;;;6.94;91.10;102450.94;4201739;28;20100;-75
2021/09/30 06:24:27;;;;;;;4.40;1.70;;;7.30;99.90;;;7.14;89.56;102453.19;4200288;28;20032;-76
2021/09/30 06:26:28;;;;;;;2.17;1.85;;;7.40;99.90;;;7.11;89.86;102453.38;4183716;28;20040;-75
2021/09/30 06:28:29;;;;;;;4.18;1.92;;;7.40;99.90;;;7.03;90.00;102455.63;4200693;28;20028;-75
2021/09/30 06:30:30;;;;;;;2.33;1.67;;;7.30;99.90;;;6.86;90.76;102453.16;4200393;28;20028;-75
2021/09/30 06:32:31;;;;;;;2.67;1.77;;;7.30;99.90;;;6.79;92.22;102459.69;4183756;28;20117;-75
2021/09/30 06:34:32;;;;;;;3.65;1.75;;;7.20;99.90;;;6.80;92.67;102454.38;4201510;28;20033;-76
2021/09/30 06:36:33;;;;;;;2.97;1.58;;;7.30;99.90;;;6.69;92.36;102443.66;4200487;28;20559;-76
2021/09/30 06:38:34;;;;;;;6.00;2.38;;;7.30;99.90;;;6.76;92.90;102449.38;4200764;28;20033;-75
2021/09/30 06:40:35;;;;;;;2.55;1.70;;;7.20;99.90;;;6.86;92.35;102446.16;4201514;28;20106;-73
2021/09/30 06:42:36;;;;;;;7.15;4.68;;;7.30;99.90;;;6.72;92.51;102437.41;4200774;28;20097;-74
2021/09/30 06:44:37;;;;;;;5.22;2.10;;;7.30;99.90;;;6.71;93.72;102425.22;4201235;28;20029;-73
2021/09/30 06:46:38;;;;;;;3.05;1.90;;;7.20;99.90;;;6.72;93.75;102434.78;4201487;28;20518;-74
2021/09/30 06:48:39;;;;;;;2.63;1.85;;;7.30;99.90;;;6.73;94.54;102432.06;4199964;28;20021;-74
2021/09/30 06:50:40;;;;;;;2.10;1.90;;;7.20;99.90;;;6.72;94.34;102429.53;4199973;28;20462;-74
2021/09/30 06:52:42;;;;;;;2.75;1.63;;;7.20;99.90;;;6.80;93.69;102429.91;4201369;28;20016;-74
2021/09/30 06:54:43;;;;;;;4.30;2.08;;;7.30;99.90;;;6.83;94.47;102425.34;4200130;28;20021;-74
2021/09/30 06:56:48;;;;;;;4.05;1.80;;;7.30;99.90;;;6.95;93.91;102431.63;4201305;28;20050;-73
2021/09/30 06:58:51;;;;;;;3.17;2.20;;;7.30;99.90;;;6.99;93.87;102423.47;4201198;28;20431;-74
2021/09/30 07:00:56;;;;;;;2.42;1.50;;;7.40;99.90;;;6.94;94.07;102416.81;4201541;28;20119;-74
2021/09/30 07:02:57;;;;;;;3.17;1.70;;;7.50;99.90;;;6.94;94.86;102417.69;4200253;28;20499;-73
2021/09/30 07:04:58;;;;;;;2.28;1.70;;;7.50;99.90;;;7.08;95.09;102424.69;4200144;28;20082;-74
2021/09/30 07:06:59;;;;;;;3.53;2.60;;;7.60;99.90;;;7.13;95.75;102425.28;4199921;28;20028;-74
2021/09/30 07:09:00;;;;;;;2.33;1.77;;;7.60;99.90;;;7.16;95.62;102423.34;4199942;28;20056;-74
2021/09/30 07:11:02;;;;;;;4.18;2.15;;;7.70;99.90;;;7.08;95.93;102430.78;4203318;28;20078;-74
2021/09/30 07:13:03;;;;;;;5.57;1.77;;;7.70;99.90;;;7.01;96.23;102424.25;4204559;28;20435;-74
2021/09/30 07:15:05;;;;;;;2.67;1.58;;;7.60;99.90;;;7.04;96.98;102431.94;4204405;28;20032;-74
2021/09/30 07:17:07;;;;;;;2.17;1.58;;;7.60;99.90;;;7.08;97.57;102432.56;4204614;28;20047;-74
2021/09/30 07:19:08;;;;;;;2.47;1.70;;;7.70;99.90;;;7.22;97.57;102428.22;4203398;28;20525;-74
2021/09/30 07:21:09;;;;;;;2.20;1.60;;;7.80;99.90;;;7.33;97.51;102439.81;4204499;28;20024;-74
2021/09/30 07:23:10;;;;;;;4.32;2.92;;;7.80;99.90;;;7.33;97.91;102440.66;4186295;28;20087;-74
2021/09/30 07:25:11;;;;;;;2.03;1.80;;;7.90;99.90;;;7.40;97.83;102433.25;4203390;28;20020;-74
2021/09/30 07:27:14;;;;;;;6.28;2.60;;;7.90;99.90;;;7.53;97.78;102440.28;4203180;28;20419;-73
2021/09/30 07:29:15;;;;;;;3.05;1.88;;;8.00;99.90;;;7.65;97.36;102447.38;4204403;28;20095;-73
2021/09/30 07:31:16;;;;;;;2.42;1.58;;;8.10;99.90;;;7.62;97.37;102444.09;4204249;28;20093;-74
2021/09/30 07:33:20;;;;;;;3.95;1.63;;;8.20;99.90;;;7.70;97.76;102445.34;4204405;28;20020;-74
2021/09/30 07:35:21;;;;;;;2.92;1.70;;;8.20;99.90;;;7.74;97.80;102441.56;4203078;28;20033;-74
2021/09/30 07:37:22;;;;;;;3.58;2.00;;;8.20;99.90;;;7.74;98.08;102438.94;4204174;28;20036;-74
2021/09/30 07:39:24;;;;;;;3.55;1.70;;;8.30;99.90;;;7.85;97.67;102443.53;4203793;28;20039;-74
2021/09/30 07:41:24;;;;;;;4.57;1.90;;;8.40;99.90;;;7.91;97.75;102437.03;4202931;28;20056;-73
2021/09/30 07:43:25;;;;;;;2.42;1.40;;;8.40;99.90;;;7.97;98.04;102442.75;4202685;28;20082;-74
2021/09/30 07:45:26;;;;;;;2.38;1.70;;;8.50;99.90;;;8.03;98.30;102447.63;4202802;28;20117;-74
2021/09/30 07:47:27;;;;;;;3.28;1.65;;;8.60;99.90;;;8.22;98.30;102447.25;4202606;28;20111;-74
2021/09/30 07:49:28;;;;;;;2.58;1.88;;;8.60;99.90;;;8.35;97.56;102442.94;4202429;28;20017;-74
2021/09/30 07:51:29;;;;;;;2.38;1.60;;;8.70;99.90;;;8.31;98.17;102434.41;4202798;28;20380;-74
2021/09/30 07:53:30;;;;;;;3.80;1.85;;;8.80;99.90;;;8.32;98.47;102435.25;4203754;28;20023;-74
2021/09/30 07:55:31;;;;;;;4.00;1.83;;;8.90;99.90;;;8.33;99.32;102435.13;4203846;28;20024;-74
2021/09/30 07:57:32;;;;;;;3.35;1.80;;;8.90;99.90;;;8.39;99.62;102433.06;4202512;28;20033;-74
2021/09/30 07:59:33;;;;;;;5.05;1.92;;;9.00;99.90;;;8.43;99.47;102437.16;4203896;28;20499;-74
2021/09/30 08:01:34;;;;;;;4.35;2.20;;;9.00;99.90;;;8.48;100.00;102430.69;4203777;28;20340;-74
2021/09/30 08:03:36;;;;;;;2.67;2.00;;;9.10;99.90;;;8.55;100.00;102433.72;4202516;28;20036;-74
2021/09/30 08:05:37;;;;;;;5.80;1.90;;;9.10;99.90;;;8.63;100.00;102426.19;4202651;28;20059;-74
2021/09/30 08:07:38;;;;;;;3.58;1.88;;;9.20;99.90;;;8.74;100.00;102437.69;4203762;28;20381;-74
2021/09/30 08:09:39;;;;;;;2.95;1.90;;;9.30;99.90;;;8.82;100.00;102435.34;4202419;28;20082;-74
2021/09/30 08:11:40;;;;;;;2.75;1.52;;;9.40;99.90;;;8.99;100.00;102438.66;4203608;28;20032;-74
2021/09/30 08:13:41;;;;;;;3.35;2.10;;;9.50;99.90;;;9.17;100.00;102442.66;4203712;28;20036;-74
2021/09/30 08:15:42;;;;;;;4.15;1.70;;;9.60;99.90;;;9.19;100.00;102441.59;4202503;28;20037;-74
2021/09/30 08:17:43;;;;;;;4.63;1.95;;;9.70;99.90;;;9.29;100.00;102441.78;4203379;28;20024;-74
2021/09/30 08:19:45;;;;;;;3.42;2.15;;;9.80;99.90;;;9.40;100.00;102436.63;4202177;28;20033;-73
2021/09/30 08:21:46;;;;;;;5.13;1.88;;;9.90;99.90;;;9.53;100.00;102431.34;4201621;28;20086;-74
2021/09/30 08:23:47;;;;;;;6.78;1.95;;;10.00;99.90;;;9.87;100.00;102433.25;4203397;28;20108;-73
2021/09/30 08:25:48;;;;;;;3.95;1.75;;;10.20;99.90;;;9.88;100.00;102427.91;4203549;28;20051;-73
2021/09/30 08:27:49;;;;;;;5.82;2.03;;;10.30;99.90;;;9.91;99.90;102430.31;4203272;28;20065;-73
2021/09/30 08:29:50;;;;;;;7.03;1.70;;;10.40;99.90;;;9.96;99.75;102433.44;4185692;28;20025;-73
2021/09/30 08:31:51;;;;;;;4.93;1.77;;;10.50;99.90;;;10.05;98.46;102431.94;4193342;28;20035;-73
2021/09/30 08:33:55;;;;;;;4.55;1.80;;;10.60;99.90;;;10.22;97.01;102436.84;4203343;28;20462;-73
2021/09/30 08:35:56;;;;;;;5.68;2.20;;;10.70;99.90;;;10.35;95.40;102428.88;4202037;28;20075;-73
2021/09/30 08:37:57;;;;;;;3.55;1.33;;;10.80;99.90;;;10.52;95.34;102437.22;4203126;28;20492;-73
2021/09/30 08:39:58;;;;;;;4.40;1.50;;;10.90;99.90;;;10.55;95.07;102431.72;4203240;28;20050;-74
2021/09/30 08:42:00;;;;;;;3.53;1.38;;;11.00;99.90;;;10.55;95.58;102422.97;4201928;28;20033;-73
2021/09/30 08:44:02;;;;;;;6.28;1.90;;;11.10;99.90;;;10.56;95.35;102427.28;4201890;28;20020;-73
2021/09/30 08:46:06;;;;;;;4.40;1.60;;;11.10;99.90;;;10.55;95.18;102422.97;4202085;28;20033;-74
2021/09/30 08:48:08;;;;;;;5.95;1.95;;;11.20;99.90;;;10.70;94.19;102429.72;4201846;28;20036;-73
2021/09/30 08:50:09;;;;;;;6.30;1.65;;;11.30;99.90;;;10.73;93.86;102434.78;4201707;28;20041;-73
2021/09/30 08:52:10;;;;;;;4.45;2.28;;;11.30;99.90;;;10.72;92.77;102417.25;4201803;28;20515;-73
2021/09/30 08:54:11;;;;;;;3.38;2.15;;;11.40;99.90;;;10.84;92.35;102426.06;4202905;28;20113;-73
2021/09/30 08:56:13;;;;;;;6.80;1.75;;;11.50;99.90;;;10.98;91.88;102421.41;4201863;28;20028;-73
2021/09/30 08:58:14;;;;;;;3.95;1.45;;;11.60;99.90;;;11.02;92.11;102416.72;4201767;28;20119;-73
2021/09/30 09:00:17;;;;;;;7.65;2.13;;;11.70;99.90;;;11.21;91.86;102424.06;4202833;28;20068;-73
2021/09/30 09:02:18;;;;;;;9.95;2.08;;;11.80;99.90;;;11.14;92.04;102421.03;4201649;28;20040;-73
2021/09/30 09:04:20;;;;;;;4.55;1.92;;;11.80;99.90;;;11.27;91.28;102413.00;4202873;28;20024;-73
2021/09/30 09:06:33;;;;;;;6.30;1.70;;;11.90;99.90;;;11.41;91.06;102413.59;4201517;28;20036;-73
2021/09/30 09:08:35;;;;;;;5.47;2.28;;;12.00;99.90;;;11.53;91.39;102414.44;4201064;28;20043;-74
2021/09/30 09:10:42;;;;;;;9.52;2.13;;;12.20;99.90;;;11.76;90.72;102410.00;4201592;28;20582;-74
2021/09/30 09:12:43;;;;;;;7.13;2.00;;;12.30;99.90;;;11.95;90.58;102423.41;4202710;28;20032;-73
2021/09/30 09:14:44;;;;;;;6.22;2.42;;;12.40;99.90;;;12.00;90.62;102411.53;4202675;28;20479;-73
2021/09/30 09:17:00;;;;;;;5.47;2.45;;;12.60;99.90;;;12.00;91.29;102414.16;4202450;28;20063;-73
2021/09/30 09:19:02;;;;;;;4.85;1.90;;;12.60;99.90;;;12.21;90.79;102401.00;4201497;28;20025;-73
2021/09/30 09:21:15;;;;;;;8.73;2.70;;;12.80;99.90;;;12.34;89.83;102400.78;4201523;28;20029;-73
2021/09/30 09:23:16;;;;;;;4.60;1.75;;;13.00;99.90;;;12.24;89.98;102399.91;4200979;28;20056;-73
2021/09/30 09:25:21;;;;;;;3.80;1.95;;;13.00;99.90;;;12.40;89.68;102411.72;4202573;28;20025;-73
2021/09/30 09:27:23;;;;;;;3.88;1.70;;;13.10;99.90;;;12.71;89.05;102408.22;4201249;28;20032;-74
2021/09/30 09:29:28;;;;;;;5.43;1.73;;;13.30;99.90;;;12.68;88.78;102404.97;4202564;28;20052;-73
2021/09/30 09:31:44;;;;;;;4.88;2.05;;;13.40;99.90;;;12.57;89.72;102399.75;4202610;28;20059;-73
2021/09/30 09:33:46;;;;;;;7.22;2.20;;;13.50;99.90;;;12.56;90.34;102395.41;4201377;28;20048;-73
2021/09/30 09:38:04;;;;;;;5.60;1.92;;;13.60;99.90;;;12.99;89.13;102401.38;4202344;28;20108;-74
2021/09/30 09:40:19;;;;;;;4.07;1.90;;;13.80;99.90;;;13.16;89.41;102400.84;4201176;28;20096;-74
2021/09/30 09:42:26;;;;;;;4.65;2.08;;;13.90;99.90;;;13.23;88.35;102396.66;4200806;28;20033;-74
2021/09/30 09:44:27;;;;;;;4.28;1.83;;;14.00;99.90;;;13.34;88.66;102393.09;4201181;28;20096;-74
2021/09/30 09:46:32;;;;;;;6.68;1.80;;;14.10;99.90;;;13.41;88.91;102402.16;4202350;28;20047;-74
2021/09/30 09:48:35;;;;;;;4.15;1.83;;;14.20;99.90;;;13.56;88.48;102387.56;4202088;28;20480;-74
2021/09/30 09:50:36;;;;;;;5.53;2.40;;;14.30;99.90;;;13.68;88.70;102388.28;4201973;28;20377;-73
2021/09/30 09:53:03;;;;;;;4.53;1.77;;;14.50;99.90;;;13.80;88.58;102379.25;4184080;28;20189;-74
2021/09/30 09:55:17;;;;;;;6.68;2.17;;;14.60;99.90;;;13.84;88.16;102391.28;4197383;28;20056;-74
2021/09/30 09:57:18;;;;;;;5.93;1.83;;;14.70;99.90;;;13.90;88.30;102385.41;4200748;28;20553;-74
2021/09/30 09:59:32;;;;;;;6.38;1.70;;;14.70;99.90;;;14.02;88.26;102391.44;4200839;28;20028;-73
2021/09/30 10:01:44;;;;;;;7.85;2.28;;;14.90;99.90;;;14.29;85.74;102386.28;4184051;28;20029;-74
2021/09/30 10:03:59;;;;;;;5.75;2.13;;;15.00;99.90;;;14.35;84.81;102378.63;4201274;28;20040;-74
2021/09/30 10:06:03;;;;;;;8.20;2.22;;;15.20;99.90;;;14.46;84.49;102379.44;4200744;28;20060;-73
2021/09/30 10:08:06;;;;;;;3.70;1.52;;;15.30;99.90;;;14.67;83.85;102380.13;4200292;28;20036;-73
2021/09/30 10:10:08;;;;;;;7.60;2.20;;;15.30;99.90;;;14.66;82.65;102373.16;4200426;28;20020;-73
2021/09/30 10:12:09;;;;;;;5.85;1.70;;;15.50;99.90;;;14.72;82.75;102372.56;4200669;28;20024;-74
2021/09/30 10:14:12;;;;;;;5.53;1.60;;;15.60;99.90;;;14.78;81.12;102372.00;4200428;28;20067;-73
2021/09/30 10:16:24;;;;;;;4.70;1.67;;;15.70;99.90;;;14.78;82.07;102366.69;4200521;28;20062;-73
2021/09/30 10:18:28;;;;;;;5.47;2.53;;;15.70;99.90;;;14.89;81.20;102366.50;4200471;28;20499;-74
2021/09/30 10:20:30;;;;;;;9.23;2.92;;;15.80;99.90;;;15.05;81.27;102372.06;4200472;28;20024;-73
2021/09/30 10:22:31;;;;;;;4.68;1.80;;;15.90;99.90;;;15.16;80.11;102355.09;4200438;28;20043;-74
2021/09/30 10:24:32;;;;;;;4.88;1.98;;;16.00;99.90;;;15.20;75.97;102356.47;4200485;28;20036;-74
2021/09/30 10:26:47;;;;;;;4.70;1.55;;;16.10;99.90;;;15.05;74.30;102349.97;4196741;28;20036;-74
2021/09/30 10:28:48;;;;;;;5.13;1.48;;;16.10;99.90;;;15.16;74.18;102349.78;4199084;28;20199;-74
2021/09/30 10:30:53;;;;;;;4.32;2.15;;;16.10;99.90;;;15.28;71.39;102345.94;4197907;28;20048;-74
2021/09/30 10:32:54;;;;;;;8.40;2.55;;;16.20;99.90;;;15.41;71.14;102339.28;4200572;28;20108;-73
2021/09/30 10:35:01;;;;;;;6.40;1.95;;;16.20;99.90;;;15.50;71.70;102340.25;4199742;28;20036;-73
2021/09/30 10:37:31;;;;;;;7.70;1.75;;;16.30;99.90;;;15.55;70.44;102340.63;4199701;28;20438;-74
2021/09/30 10:39:32;;;;;;;3.20;1.10;;;16.40;99.90;;;15.58;70.99;102342.16;4184279;28;20041;-74
2021/09/30 10:41:36;;;;;;;5.72;1.52;;;16.50;99.90;;;15.63;69.02;102334.56;4200014;28;20103;-74
2021/09/30 10:43:47;;;;;;;3.20;1.20;;;16.50;99.90;;;15.73;68.72;102333.53;4199732;28;20032;-74
2021/09/30 10:45:48;;;;;;;3.58;1.05;;;16.60;99.90;;;15.70;68.48;102330.31;4199423;28;20025;-75
2021/09/30 10:47:49;;;;;;;5.72;1.48;;;16.70;99.90;;;15.75;68.69;102320.91;4199489;28;20031;-74
2021/09/30 10:49:57;;;;;;;3.50;1.02;;;16.70;99.90;;;15.71;67.37;102319.50;4200750;28;20120;-74
2021/09/30 10:52:28;;;;;;;4.20;1.20;;;16.70;99.90;;;15.84;68.11;102324.47;4200976;28;20052;-74
2021/09/30 10:54:38;;;;;;;3.10;1.20;;;16.80;99.90;;;15.99;68.02;102317.63;4200524;28;20090;-74
2021/09/30 10:56:39;;;;;;;4.25;1.15;;;16.80;99.90;;;16.12;66.82;102323.41;4199895;28;20028;-74
2021/09/30 10:58:40;;;;;;;4.78;1.00;;;17.00;99.90;;;16.18;66.98;102322.78;4199432;28;20024;-74
2021/09/30 11:00:47;;;;;;;4.40;1.58;;;17.10;99.90;;;16.08;68.99;102308.72;4199895;28;20040;-74
2021/09/30 11:03:05;;;;;;;3.42;1.38;;;17.10;99.90;;;16.31;66.08;102317.88;4199885;28;20375;-74
2021/09/30 11:05:09;;;;;;;4.20;1.13;;;17.20;99.90;;;16.22;66.68;102308.16;4200792;28;20440;-74
2021/09/30 11:07:16;;;;;;;;;;;17.30;99.90;;;16.36;66.37;102307.63;4200098;28;20451;-75
2021/09/30 11:09:23;;;;;;;5.00;1.10;;;17.40;99.90;;;16.56;66.03;102309.13;4199255;28;19908;-75
2021/09/30 11:11:25;;;;;;;4.45;1.08;;;17.50;99.90;;;16.74;66.99;102309.06;4199695;28;20103;-75
2021/09/30 11:13:29;;;;;;;6.13;2.30;;;17.80;99.90;;;16.78;67.02;102305.09;4182387;28;20029;-75
2021/09/30 11:16:02;;;;;;;5.45;1.38;;;17.90;99.90;;;17.05;65.65;102307.53;4199440;28;20119;-75
2021/09/30 11:18:54;;;;;;;7.63;1.20;;;18.10;99.80;;;17.18;64.83;102301.75;4200261;28;20106;-75
2021/09/30 11:20:55;;;;;;;5.10;1.80;;;18.20;99.30;;;17.23;64.80;102296.78;4199491;28;20025;-74
2021/09/30 11:22:56;;;;;;;6.43;1.60;;;18.30;99.10;;;17.10;65.22;102288.41;4199164;28;20028;-72
2021/09/30 11:24:57;;;;;;;5.88;2.10;;;18.30;99.20;;;17.13;65.18;102288.09;4199267;28;20029;-75
2021/09/30 11:26:59;;;;;;;9.02;2.08;;;18.40;99.10;;;17.20;65.15;102293.63;4200903;28;20100;-75
2021/09/30 11:29:27;;;;;;;5.25;1.77;;;18.40;99.10;;;16.98;63.52;102277.19;4200319;28;20028;-75
2021/09/30 11:31:33;;;;;;;7.63;1.42;;;18.50;98.20;;;17.00;66.98;102288.53;4199703;28;20032;-75
2021/09/30 11:33:35;;;;;;;5.30;1.58;;;18.50;99.50;;;17.25;65.58;102284.13;4199439;28;20028;-75
2021/09/30 11:35:36;;;;;;;4.43;1.92;;;18.70;99.10;;;17.27;64.44;102295.47;4198331;28;20096;-74
2021/09/30 11:37:45;;;;;;;4.38;1.30;;;18.80;98.50;;;17.65;64.21;102289.56;4196908;28;20028;-74
2021/09/30 11:39:51;;;;;;;5.13;2.10;;;19.00;98.70;;;17.78;62.03;102293.59;4187626;28;20028;-74